Time,TemperatureF,DewpointF,PressureIn,WindDirection,WindDirectionDegrees,WindSpeedMPH,WindSpeedGustMPH,Humidity,HourlyPrecipIn,Conditions,Clouds,dailyrainin,SoftwareType,DateUTC
2013-01-12 00:00:00,51.2,50.7,30.17,North,355,0.0,0.0,98,0.00,,---,0.00,VWS V14.00,2013-01-12 05:00:00,
2013-01-12 00:01:00,51.2,50.7,30.17,North,355,0.0,0.0,98,0.00,,---,0.00,VWS V14.00,2013-01-12 05:01:00,
2013-01-12 00:02:00,51.2,50.7,30.17,North,355,0.0,0.0,98,0.00,,---,0.00,VWS V14.00,2013-01-12 05:02:00,
2013-01-12 00:07:00,51.2,50.7,30.17,North,355,0.0,0.0,98,0.00,,---,0.00,VWS V14.00,2013-01-12 05:07:00,
2013-01-12 00:12:00,51.2,50.7,30.17,North,355,0.0,0.0,98,0.00,,---,0.00,VWS V14.00,2013-01-12 05:12:00,
2013-01-12 00:17:00,51.2,50.7,30.17,North,355,0.0,0.0,98,0.00,,---,0.00,VWS V14.00,2013-01-12 05:17:00,
2013-01-12 00:22:00,51.2,50.7,30.17,North,355,0.0,0.0,98,0.00,,---,0.00,VWS V14.00,2013-01-12 05:22:00,
2013-01-12 00:27:00,51.2,50.7,30.17,North,355,0.0,0.0,98,0.00,,---,0.00,VWS V14.00,2013-01-12 05:27:00,
2013-01-12 00:32:00,51.3,50.8,30.17,North,355,0.0,0.0,98,0.00,,---,0.00,VWS V14.00,2013-01-12 05:32:00,
2013-01-12 00:37:00,51.3,50.8,30.17,North,355,0.0,0.0,98,0.00,,---,0.00,VWS V14.00,2013-01-12 05:37:00,
2013-01-12 00:42:00,51.3,50.8,30.17,North,355,0.0,0.0,98,0.00,,---,0.00,VWS V14.00,2013-01-12 05:42:00,
2013-01-12 00:47:00,51.3,50.8,30.17,North,355,0.0,0.0,98,0.00,,---,0.00,VWS V14.00,2013-01-12 05:47:00,
2013-01-12 00:52:00,51.3,50.8,30.17,North,355,0.0,0.0,98,0.00,,---,0.00,VWS V14.00,2013-01-12 05:52:00,
2013-01-12 00:57:00,51.3,50.8,30.17,North,355,0.0,0.0,98,0.00,,---,0.00,VWS V14.00,2013-01-12 05:57:00,
2013-01-12 01:02:00,51.4,50.9,30.17,North,355,0.0,0.0,98,0.00,,---,0.00,VWS V14.00,2013-01-12 06:02:00,
2013-01-12 01:07:00,51.4,50.9,30.17,North,355,0.0,0.0,98,0.00,,---,0.00,VWS V14.00,2013-01-12 06:07:00,
2013-01-12 01:12:00,51.4,50.9,30.17,North,355,0.0,0.0,98,0.00,,---,0.00,VWS V14.00,2013-01-12 06:12:00,
2013-01-12 01:17:00,51.5,51.0,30.17,North,355,0.0,0.0,98,0.00,,---,0.00,VWS V14.00,2013-01-12 06:17:00,
2013-01-12 01:22:00,51.5,51.0,30.16,North,355,0.0,0.0,98,0.00,,---,0.00,VWS V14.00,2013-01-12 06:22:00,
2013-01-12 01:27:00,51.6,51.1,30.16,North,355,0.0,0.0,98,0.00,,---,0.00,VWS V14.00,2013-01-12 06:27:00,
2013-01-12 01:32:00,51.7,51.2,30.16,North,355,0.0,0.0,98,0.00,,---,0.00,VWS V14.00,2013-01-12 06:32:00,
2013-01-12 01:37:00,51.7,51.2,30.16,North,355,0.0,0.0,98,0.00,,---,0.00,VWS V14.00,2013-01-12 06:37:00,
2013-01-12 01:42:00,51.7,51.2,30.16,North,355,0.0,0.0,98,0.00,,---,0.00,VWS V14.00,2013-01-12 06:42:00,
2013-01-12 01:47:00,51.8,51.3,30.16,North,355,0.0,0.0,98,0.00,,---,0.00,VWS V14.00,2013-01-12 06:47:00,
2013-01-12 01:52:00,51.9,51.4,30.16,North,355,0.0,0.0,98,0.00,,---,0.00,VWS V14.00,2013-01-12 06:52:00,
2013-01-12 01:57:00,51.9,51.4,30.16,North,355,0.0,0.0,98,0.00,,---,0.00,VWS V14.00,2013-01-12 06:57:00,
2013-01-12 02:02:00,51.9,51.4,30.16,North,355,0.0,0.0,98,0.00,,---,0.00,VWS V14.00,2013-01-12 07:02:00,
2013-01-12 02:07:00,51.9,51.4,30.16,North,355,0.0,0.0,98,0.00,,---,0.00,VWS V14.00,2013-01-12 07:07:00,
2013-01-12 02:12:00,51.9,51.4,30.17,North,355,0.0,0.0,98,0.00,,---,0.00,VWS V14.00,2013-01-12 07:12:00,
2013-01-12 02:17:00,51.9,51.4,30.17,North,355,0.0,0.0,98,0.00,,---,0.00,VWS V14.00,2013-01-12 07:17:00,
2013-01-12 02:22:00,51.9,51.4,30.16,North,355,0.0,0.0,98,0.00,,---,0.00,VWS V14.00,2013-01-12 07:22:00,
2013-01-12 02:27:00,52.0,51.5,30.16,North,355,0.0,0.0,98,0.00,,---,0.00,VWS V14.00,2013-01-12 07:27:00,
2013-01-12 02:32:00,52.0,51.5,30.16,North,355,0.0,0.0,98,0.00,,---,0.00,VWS V14.00,2013-01-12 07:32:00,
2013-01-12 02:37:00,52.1,51.5,30.16,North,355,0.0,0.0,98,0.00,,---,0.00,VWS V14.00,2013-01-12 07:37:00,
2013-01-12 02:42:00,52.1,51.5,30.16,North,355,0.0,0.0,98,0.00,,---,0.00,VWS V14.00,2013-01-12 07:42:00,
2013-01-12 02:47:00,52.1,51.5,30.17,North,355,0.0,0.0,98,0.00,,---,0.00,VWS V14.00,2013-01-12 07:47:00,
2013-01-12 02:52:00,52.1,51.5,30.17,North,355,0.0,0.0,98,0.00,,---,0.00,VWS V14.00,2013-01-12 07:52:00,
2013-01-12 02:57:00,52.2,51.7,30.17,North,355,0.0,0.0,98,0.00,,---,0.00,VWS V14.00,2013-01-12 07:57:00,
2013-01-12 03:02:00,52.2,51.7,30.17,North,355,0.0,0.0,98,0.00,,---,0.00,VWS V14.00,2013-01-12 08:02:00,
2013-01-12 03:07:00,52.2,51.7,30.17,North,355,0.0,0.0,98,0.00,,---,0.00,VWS V14.00,2013-01-12 08:07:00,
2013-01-12 03:12:00,52.3,51.8,30.16,North,355,0.0,0.0,98,0.00,,---,0.00,VWS V14.00,2013-01-12 08:12:00,
2013-01-12 03:17:00,52.4,51.8,30.16,North,355,0.0,0.0,98,0.00,,---,0.00,VWS V14.00,2013-01-12 08:17:00,
2013-01-12 03:22:00,52.5,52.0,30.16,North,355,0.0,0.0,98,0.00,,---,0.00,VWS V14.00,2013-01-12 08:22:00,
2013-01-12 03:27:00,52.6,52.0,30.16,North,355,0.0,0.0,98,0.00,,---,0.00,VWS V14.00,2013-01-12 08:27:00,
2013-01-12 03:32:00,52.6,52.0,30.15,North,355,0.0,0.0,98,0.00,,---,0.00,VWS V14.00,2013-01-12 08:32:00,
2013-01-12 03:37:00,52.6,52.0,30.16,North,355,0.0,0.0,98,0.00,,---,0.00,VWS V14.00,2013-01-12 08:37:00,
2013-01-12 03:42:00,52.6,52.0,30.15,North,355,0.0,0.0,98,0.00,,---,0.00,VWS V14.00,2013-01-12 08:42:00,
2013-01-12 03:47:00,53.1,52.5,30.15,North,355,0.0,2.0,98,0.00,,---,0.00,VWS V14.00,2013-01-12 08:47:00,
2013-01-12 03:52:00,53.6,53.0,30.15,North,355,1.0,1.0,98,0.00,,---,0.00,VWS V14.00,2013-01-12 08:52:00,
2013-01-12 03:57:00,54.1,53.5,30.14,NW,312,2.0,4.0,98,0.00,,---,0.00,VWS V14.00,2013-01-12 08:57:00,
2013-01-12 04:02:00,54.6,54.3,30.15,WSW,248,0.0,0.0,99,0.00,,---,0.00,VWS V14.00,2013-01-12 09:02:00,
2013-01-12 04:07:00,55.1,54.8,30.14,West,273,0.0,3.0,99,0.00,,---,0.00,VWS V14.00,2013-01-12 09:07:00,
2013-01-12 04:13:00,55.5,55.2,30.14,West,261,0.0,2.0,99,0.00,,---,0.00,VWS V14.00,2013-01-12 09:13:00,
2013-01-12 04:18:00,55.7,55.4,30.14,West,259,4.0,4.0,99,0.00,,---,0.00,VWS V14.00,2013-01-12 09:18:00,
2013-01-12 04:23:00,56.0,55.7,30.14,West,267,1.0,1.0,99,0.00,,---,0.00,VWS V14.00,2013-01-12 09:23:00,
2013-01-12 04:28:00,56.1,55.8,30.14,WSW,245,5.0,6.0,99,0.00,,---,0.00,VWS V14.00,2013-01-12 09:28:00,
2013-01-12 04:33:00,56.1,55.8,30.14,SW,229,6.0,9.0,99,0.00,,---,0.00,VWS V14.00,2013-01-12 09:33:00,
2013-01-12 04:38:00,56.0,55.7,30.13,WSW,257,9.0,9.0,99,0.00,,---,0.00,VWS V14.00,2013-01-12 09:38:00,
2013-01-12 04:43:00,55.9,55.6,30.13,SW,236,6.0,7.0,99,0.00,,---,0.00,VWS V14.00,2013-01-12 09:43:00,
2013-01-12 04:48:00,55.8,55.5,30.13,SW,233,5.0,6.0,99,0.00,,---,0.00,VWS V14.00,2013-01-12 09:48:00,
2013-01-12 04:53:00,55.7,55.4,30.13,SW,225,6.0,7.0,99,0.00,,---,0.00,VWS V14.00,2013-01-12 09:53:00,
2013-01-12 04:58:00,55.4,55.1,30.12,SW,232,6.0,7.0,99,0.00,,---,0.00,VWS V14.00,2013-01-12 09:58:00,
2013-01-12 05:03:00,55.1,54.8,30.12,SW,233,6.0,7.0,99,0.00,,---,0.00,VWS V14.00,2013-01-12 10:03:00,
2013-01-12 05:08:00,54.9,54.6,30.13,SW,232,7.0,8.0,99,0.00,,---,0.00,VWS V14.00,2013-01-12 10:08:00,
2013-01-12 05:13:00,55.0,54.7,30.12,SW,225,6.0,9.0,99,0.00,,---,0.00,VWS V14.00,2013-01-12 10:13:00,
2013-01-12 05:18:00,55.3,54.8,30.12,West,281,4.0,8.0,98,0.00,,---,0.00,VWS V14.00,2013-01-12 10:18:00,
2013-01-12 05:23:00,55.5,55.2,30.12,WSW,241,2.0,5.0,99,0.00,,---,0.00,VWS V14.00,2013-01-12 10:23:00,
2013-01-12 05:28:00,55.6,55.3,30.12,WSW,248,0.0,1.0,99,0.00,,---,0.00,VWS V14.00,2013-01-12 10:28:00,
2013-01-12 05:33:00,55.6,55.3,30.12,SW,234,5.0,5.0,99,0.00,,---,0.00,VWS V14.00,2013-01-12 10:33:00,
2013-01-12 05:38:00,55.6,55.3,30.12,WSW,240,2.0,2.0,99,0.00,,---,0.00,VWS V14.00,2013-01-12 10:38:00,
2013-01-12 05:43:00,55.7,55.4,30.12,SW,220,2.0,5.0,99,0.00,,---,0.00,VWS V14.00,2013-01-12 10:43:00,
2013-01-12 05:48:00,55.9,55.6,30.12,WSW,248,4.0,7.0,99,0.00,,---,0.00,VWS V14.00,2013-01-12 10:48:00,
2013-01-12 05:53:00,55.9,55.6,30.12,SW,231,0.0,0.0,99,0.00,,---,0.00,VWS V14.00,2013-01-12 10:53:00,
2013-01-12 05:58:00,55.9,55.3,30.13,SW,231,0.0,0.0,98,0.00,,---,0.00,VWS V14.00,2013-01-12 10:58:00,
2013-01-12 06:03:00,55.8,55.2,30.13,SW,231,0.0,0.0,98,0.00,,---,0.00,VWS V14.00,2013-01-12 11:03:00,
2013-01-12 06:08:00,55.7,55.4,30.13,SW,231,0.0,0.0,99,0.00,,---,0.00,VWS V14.00,2013-01-12 11:08:00,
2013-01-12 06:13:00,55.6,55.3,30.13,SW,231,0.0,0.0,99,0.00,,---,0.00,VWS V14.00,2013-01-12 11:13:00,
2013-01-12 06:18:00,55.6,55.3,30.13,SW,231,0.0,0.0,99,0.00,,---,0.00,VWS V14.00,2013-01-12 11:18:00,
2013-01-12 06:23:00,55.8,55.2,30.13,SW,215,0.0,0.0,98,0.00,,---,0.00,VWS V14.00,2013-01-12 11:23:00,
2013-01-12 06:28:00,56.0,55.5,30.13,SW,215,0.0,0.0,98,0.00,,---,0.00,VWS V14.00,2013-01-12 11:28:00,
2013-01-12 06:33:00,56.3,56.0,30.13,SW,217,4.0,5.0,99,0.00,,---,0.00,VWS V14.00,2013-01-12 11:33:00,
2013-01-12 06:38:00,56.7,56.4,30.13,SW,217,0.0,0.0,99,0.00,,---,0.00,VWS V14.00,2013-01-12 11:38:00,
2013-01-12 06:43:00,56.9,56.6,30.13,SW,226,3.0,5.0,99,0.00,,---,0.00,VWS V14.00,2013-01-12 11:43:00,
2013-01-12 06:48:00,57.1,56.8,30.14,SW,227,0.0,1.0,99,0.00,,---,0.00,VWS V14.00,2013-01-12 11:48:00,
2013-01-12 06:53:00,57.3,57.0,30.14,WSW,246,0.0,1.0,99,0.00,,---,0.00,VWS V14.00,2013-01-12 11:53:00,
2013-01-12 06:58:00,57.4,57.1,30.14,WSW,251,0.0,0.0,99,0.00,,---,0.00,VWS V14.00,2013-01-12 11:58:00,
2013-01-12 07:03:00,57.4,57.1,30.14,WSW,248,0.0,2.0,99,0.00,,---,0.00,VWS V14.00,2013-01-12 12:03:00,
2013-01-12 07:08:00,57.6,57.3,30.14,WSW,258,4.0,5.0,99,0.00,,---,0.00,VWS V14.00,2013-01-12 12:08:00,
2013-01-12 07:13:00,57.8,57.5,30.14,WSW,256,5.0,5.0,99,0.00,,---,0.00,VWS V14.00,2013-01-12 12:13:00,
2013-01-12 07:18:00,58.0,57.7,30.14,WSW,250,1.0,4.0,99,0.00,,---,0.00,VWS V14.00,2013-01-12 12:18:00,
2013-01-12 07:23:00,58.1,57.8,30.14,West,262,2.0,4.0,99,0.00,,---,0.00,VWS V14.00,2013-01-12 12:23:00,
2013-01-12 07:28:00,58.0,57.7,30.15,West,262,3.0,3.0,99,0.00,,---,0.00,VWS V14.00,2013-01-12 12:28:00,
2013-01-12 07:33:00,58.0,57.7,30.15,West,262,4.0,5.0,99,0.00,,---,0.00,VWS V14.00,2013-01-12 12:33:00,
2013-01-12 07:38:00,58.0,57.7,30.15,West,262,0.0,2.0,99,0.00,,---,0.00,VWS V14.00,2013-01-12 12:38:00,
2013-01-12 07:43:00,58.0,57.7,30.15,West,262,3.0,4.0,99,0.00,,---,0.00,VWS V14.00,2013-01-12 12:43:00,
2013-01-12 07:48:00,57.9,57.6,30.15,West,262,4.0,4.0,99,0.00,,---,0.00,VWS V14.00,2013-01-12 12:48:00,
2013-01-12 07:53:00,58.0,57.7,30.15,West,262,2.0,2.0,99,0.00,,---,0.00,VWS V14.00,2013-01-12 12:53:00,
2013-01-12 07:58:00,58.0,57.7,30.15,West,262,5.0,5.0,99,0.00,,---,0.00,VWS V14.00,2013-01-12 12:58:00,
2013-01-12 08:03:00,58.0,57.7,30.15,West,262,4.0,4.0,99,0.00,,---,0.00,VWS V14.00,2013-01-12 13:03:00,
2013-01-12 08:08:00,58.1,57.8,30.15,West,262,0.0,4.0,99,0.00,,---,0.00,VWS V14.00,2013-01-12 13:08:00,
2013-01-12 08:13:00,58.1,57.8,30.15,West,262,0.0,0.0,99,0.00,,---,0.00,VWS V14.00,2013-01-12 13:13:00,
2013-01-12 08:18:00,58.1,57.8,30.15,West,262,0.0,0.0,99,0.00,,---,0.00,VWS V14.00,2013-01-12 13:18:00,
2013-01-12 08:23:00,58.2,57.9,30.15,West,262,4.0,4.0,99,0.00,,---,0.00,VWS V14.00,2013-01-12 13:23:00,
2013-01-12 08:28:00,58.3,58.0,30.16,West,262,0.0,1.0,99,0.00,,---,0.00,VWS V14.00,2013-01-12 13:28:00,
2013-01-12 08:33:00,58.5,58.2,30.15,WSW,238,0.0,0.0,99,0.00,,---,0.00,VWS V14.00,2013-01-12 13:33:00,
2013-01-12 08:38:00,58.7,58.4,30.15,SW,234,3.0,3.0,99,0.00,,---,0.00,VWS V14.00,2013-01-12 13:38:00,
2013-01-12 08:43:00,58.9,58.6,30.16,WSW,252,4.0,5.0,99,0.00,,---,0.00,VWS V14.00,2013-01-12 13:43:00,
2013-01-12 08:48:00,59.0,58.7,30.16,WSW,238,4.0,5.0,99,0.00,,---,0.00,VWS V14.00,2013-01-12 13:48:00,
2013-01-12 08:53:00,59.1,58.8,30.16,WSW,239,3.0,3.0,99,0.00,,---,0.00,VWS V14.00,2013-01-12 13:53:00,
2013-01-12 08:58:00,59.2,58.9,30.16,WSW,254,3.0,4.0,99,0.00,,---,0.00,VWS V14.00,2013-01-12 13:58:00,
2013-01-12 09:03:00,59.2,58.9,30.16,West,260,4.0,4.0,99,0.00,,---,0.00,VWS V14.00,2013-01-12 14:03:00,
2013-01-12 09:08:00,59.3,59.0,30.16,West,259,1.0,2.0,99,0.00,,---,0.00,VWS V14.00,2013-01-12 14:08:00,
2013-01-12 09:13:00,59.3,59.0,30.16,West,259,0.0,1.0,99,0.00,,---,0.00,VWS V14.00,2013-01-12 14:13:00,
2013-01-12 09:18:00,59.4,59.1,30.16,West,259,3.0,3.0,99,0.00,,---,0.00,VWS V14.00,2013-01-12 14:18:00,
2013-01-12 09:23:00,59.5,59.2,30.16,SW,218,2.0,4.0,99,0.00,,---,0.00,VWS V14.00,2013-01-12 14:23:00,
2013-01-12 09:28:00,59.6,59.3,30.16,WSW,241,3.0,4.0,99,0.00,,---,0.00,VWS V14.00,2013-01-12 14:28:00,
2013-01-12 09:33:00,59.6,59.3,30.16,WSW,243,4.0,6.0,99,0.00,,---,0.00,VWS V14.00,2013-01-12 14:33:00,
2013-01-12 09:38:00,59.7,59.4,30.16,WSW,239,6.0,8.0,99,0.00,,---,0.00,VWS V14.00,2013-01-12 14:38:00,
2013-01-12 09:43:00,59.9,59.6,30.16,SW,222,6.0,7.0,99,0.00,,---,0.00,VWS V14.00,2013-01-12 14:43:00,
2013-01-12 09:48:00,60.2,59.9,30.16,SW,236,5.0,7.0,99,0.00,,---,0.00,VWS V14.00,2013-01-12 14:48:00,
2013-01-12 09:53:00,60.3,60.0,30.16,WSW,250,6.0,6.0,99,0.00,,---,0.00,VWS V14.00,2013-01-12 14:53:00,
2013-01-12 09:58:00,60.5,60.2,30.16,WSW,246,4.0,4.0,99,0.00,,---,0.00,VWS V14.00,2013-01-12 14:58:00,
2013-01-12 10:03:00,60.7,60.4,30.16,WSW,239,9.0,9.0,99,0.00,,---,0.00,VWS V14.00,2013-01-12 15:03:00,
2013-01-12 10:08:00,60.9,60.6,30.16,WSW,251,6.0,6.0,99,0.00,,---,0.00,VWS V14.00,2013-01-12 15:08:00,
2013-01-12 10:13:00,61.1,60.8,30.16,West,280,6.0,9.0,99,0.00,,---,0.00,VWS V14.00,2013-01-12 15:13:00,
2013-01-12 10:18:00,61.3,61.0,30.16,WSW,250,2.0,4.0,99,0.00,,---,0.00,VWS V14.00,2013-01-12 15:18:00,
2013-01-12 10:23:00,61.6,61.3,30.16,West,268,0.0,5.0,99,0.00,,---,0.00,VWS V14.00,2013-01-12 15:23:00,
2013-01-12 10:28:00,61.8,61.5,30.16,West,265,2.0,3.0,99,0.00,,---,0.00,VWS V14.00,2013-01-12 15:28:00,
2013-01-12 10:33:00,62.0,61.7,30.17,WSW,257,3.0,8.0,99,0.00,,---,0.00,VWS V14.00,2013-01-12 15:33:00,
2013-01-12 10:38:00,62.3,62.0,30.16,SW,221,5.0,6.0,99,0.00,,---,0.00,VWS V14.00,2013-01-12 15:38:00,
2013-01-12 10:43:00,62.5,62.2,30.16,SW,236,6.0,6.0,99,0.00,,---,0.00,VWS V14.00,2013-01-12 15:43:00,
2013-01-12 10:48:00,62.9,62.6,30.16,SSW,210,2.0,9.0,99,0.00,,---,0.00,VWS V14.00,2013-01-12 15:48:00,
2013-01-12 10:53:00,63.4,63.1,30.16,WSW,240,6.0,7.0,99,0.00,,---,0.00,VWS V14.00,2013-01-12 15:53:00,
2013-01-12 10:58:00,63.8,63.5,30.16,WSW,250,2.0,6.0,99,0.00,,---,0.00,VWS V14.00,2013-01-12 15:58:00,
2013-01-12 11:03:00,64.2,63.9,30.16,WSW,243,2.0,5.0,99,0.00,,---,0.00,VWS V14.00,2013-01-12 16:03:00,
2013-01-12 11:08:00,64.5,63.9,30.15,WSW,246,0.0,3.0,98,0.00,,---,0.00,VWS V14.00,2013-01-12 16:08:00,
2013-01-12 11:13:00,64.9,64.0,30.15,WSW,250,3.0,5.0,97,0.00,,---,0.00,VWS V14.00,2013-01-12 16:13:00,
2013-01-12 11:18:00,65.0,63.8,30.15,West,269,1.0,2.0,96,0.00,,---,0.00,VWS V14.00,2013-01-12 16:18:00,
2013-01-12 11:23:00,65.3,63.8,30.15,West,269,3.0,5.0,95,0.00,,---,0.00,VWS V14.00,2013-01-12 16:23:00,
2013-01-12 11:28:00,65.7,64.2,30.15,WSW,254,11.0,11.0,95,0.00,,---,0.00,VWS V14.00,2013-01-12 16:28:00,
2013-01-12 11:33:00,66.1,64.6,30.15,WSW,239,1.0,3.0,95,0.00,,---,0.00,VWS V14.00,2013-01-12 16:33:00,
2013-01-12 11:38:00,66.6,64.5,30.14,SW,236,3.0,6.0,93,0.00,,---,0.00,VWS V14.00,2013-01-12 16:38:00,
2013-01-12 11:43:00,66.9,64.2,30.14,West,259,9.0,10.0,91,0.01,,---,0.01,VWS V14.00,2013-01-12 16:43:00,
2013-01-12 11:48:00,67.1,64.4,30.14,WSW,248,5.0,9.0,91,0.01,,---,0.01,VWS V14.00,2013-01-12 16:48:00,
2013-01-12 11:53:00,67.3,64.3,30.14,SSW,211,3.0,7.0,90,0.01,,---,0.01,VWS V14.00,2013-01-12 16:53:00,
2013-01-12 11:58:00,67.4,64.4,30.13,NW,308,0.0,6.0,90,0.01,,---,0.01,VWS V14.00,2013-01-12 16:58:00,
2013-01-12 12:03:00,67.5,64.5,30.13,SW,236,8.0,8.0,90,0.01,,---,0.01,VWS V14.00,2013-01-12 17:03:00,
2013-01-12 12:08:00,67.7,64.7,30.13,WSW,256,6.0,8.0,90,0.01,,---,0.01,VWS V14.00,2013-01-12 17:08:00,
2013-01-12 12:13:00,67.9,64.9,30.13,SW,236,1.0,4.0,90,0.01,,---,0.01,VWS V14.00,2013-01-12 17:13:00,
2013-01-12 12:18:00,68.2,64.8,30.13,WSW,246,3.0,4.0,89,0.01,,---,0.01,VWS V14.00,2013-01-12 17:18:00,
2013-01-12 12:23:00,68.7,65.0,30.12,SW,235,2.0,8.0,88,0.01,,---,0.01,VWS V14.00,2013-01-12 17:23:00,
2013-01-12 12:28:00,69.2,65.5,30.12,SW,217,8.0,8.0,88,0.01,,---,0.01,VWS V14.00,2013-01-12 17:28:00,
2013-01-12 12:33:00,69.5,65.5,30.12,WSW,249,3.0,5.0,87,0.01,,---,0.01,VWS V14.00,2013-01-12 17:33:00,
2013-01-12 12:38:00,69.7,65.3,30.12,SSW,209,7.0,7.0,86,0.01,,---,0.01,VWS V14.00,2013-01-12 17:38:00,
2013-01-12 12:43:00,70.1,65.7,30.12,SSW,202,5.0,7.0,86,0.00,,---,0.01,VWS V14.00,2013-01-12 17:43:00,
2013-01-12 12:48:00,70.7,66.3,30.12,SW,228,9.0,11.0,86,0.00,,---,0.01,VWS V14.00,2013-01-12 17:48:00,
2013-01-12 12:53:00,71.2,65.8,30.12,SSW,202,1.0,6.0,83,0.00,,---,0.01,VWS V14.00,2013-01-12 17:53:00,
2013-01-12 12:58:00,71.5,65.7,30.12,SW,215,4.0,6.0,82,0.00,,---,0.01,VWS V14.00,2013-01-12 17:58:00,
2013-01-12 13:03:00,71.6,65.5,30.12,SW,219,6.0,8.0,81,0.00,,---,0.01,VWS V14.00,2013-01-12 18:03:00,
2013-01-12 13:08:00,71.6,65.8,30.11,West,265,3.0,7.0,82,0.00,,---,0.01,VWS V14.00,2013-01-12 18:08:00,
2013-01-12 13:13:00,71.6,65.8,30.11,SW,230,7.0,8.0,82,0.00,,---,0.01,VWS V14.00,2013-01-12 18:13:00,
2013-01-12 13:18:00,71.7,65.2,30.11,West,266,5.0,6.0,80,0.00,,---,0.01,VWS V14.00,2013-01-12 18:18:00,
2013-01-12 13:23:00,71.8,64.9,30.11,WSW,254,6.0,15.0,79,0.00,,---,0.01,VWS V14.00,2013-01-12 18:23:00,
2013-01-12 13:28:00,71.9,64.3,30.11,West,263,5.0,7.0,77,0.00,,---,0.01,VWS V14.00,2013-01-12 18:28:00,
2013-01-12 13:33:00,71.9,64.7,30.11,WSW,244,9.0,9.0,78,0.00,,---,0.01,VWS V14.00,2013-01-12 18:33:00,
2013-01-12 13:38:00,72.1,63.8,30.11,SW,229,8.0,8.0,75,0.00,,---,0.01,VWS V14.00,2013-01-12 18:38:00,
2013-01-12 13:43:00,72.1,63.4,30.11,SSW,213,7.0,10.0,74,0.00,,---,0.01,VWS V14.00,2013-01-12 18:43:00,
2013-01-12 13:48:00,72.2,63.1,30.11,West,271,5.0,11.0,73,0.00,,---,0.01,VWS V14.00,2013-01-12 18:48:00,
2013-01-12 13:53:00,72.3,63.2,30.11,NNW,329,3.0,4.0,73,0.00,,---,0.01,VWS V14.00,2013-01-12 18:53:00,
2013-01-12 13:58:00,72.4,63.3,30.11,WNW,290,7.0,11.0,73,0.00,,---,0.01,VWS V14.00,2013-01-12 18:58:00,
2013-01-12 14:03:00,72.5,63.4,30.11,WSW,246,8.0,11.0,73,0.00,,---,0.01,VWS V14.00,2013-01-12 19:03:00,
2013-01-12 14:08:00,72.6,63.5,30.11,SW,229,6.0,11.0,73,0.00,,---,0.01,VWS V14.00,2013-01-12 19:08:00,
2013-01-12 14:13:00,72.9,63.0,30.10,SW,232,5.0,8.0,71,0.00,,---,0.01,VWS V14.00,2013-01-12 19:13:00,
2013-01-12 14:18:00,73.0,61.8,30.11,SW,236,8.0,10.0,68,0.00,,---,0.01,VWS V14.00,2013-01-12 19:18:00,
2013-01-12 14:23:00,72.8,61.6,30.10,WSW,250,8.0,10.0,68,0.00,,---,0.01,VWS V14.00,2013-01-12 19:23:00,
2013-01-12 14:28:00,72.5,61.3,30.11,WSW,246,6.0,9.0,68,0.00,,---,0.01,VWS V14.00,2013-01-12 19:28:00,
2013-01-12 14:33:00,72.3,60.7,30.10,WSW,251,5.0,10.0,67,0.00,,---,0.01,VWS V14.00,2013-01-12 19:33:00,
2013-01-12 14:38:00,72.1,61.0,30.10,SW,230,8.0,10.0,68,0.00,,---,0.01,VWS V14.00,2013-01-12 19:38:00,
2013-01-12 14:43:00,72.0,60.9,30.10,SW,227,9.0,9.0,68,0.00,,---,0.01,VWS V14.00,2013-01-12 19:43:00,
2013-01-12 14:48:00,71.9,60.8,30.10,West,267,5.0,8.0,68,0.00,,---,0.01,VWS V14.00,2013-01-12 19:48:00,
2013-01-12 14:53:00,71.8,61.1,30.10,SW,226,5.0,9.0,69,0.00,,---,0.01,VWS V14.00,2013-01-12 19:53:00,
2013-01-12 14:58:00,71.7,61.0,30.10,SW,231,7.0,8.0,69,0.00,,---,0.01,VWS V14.00,2013-01-12 19:58:00,
2013-01-12 15:03:00,71.9,60.4,30.10,WSW,245,5.0,9.0,67,0.00,,---,0.01,VWS V14.00,2013-01-12 20:03:00,
2013-01-12 15:08:00,71.8,60.3,30.10,SSW,207,3.0,11.0,67,0.00,,---,0.01,VWS V14.00,2013-01-12 20:08:00,
2013-01-12 15:13:00,71.5,60.0,30.10,SW,223,2.0,7.0,67,0.00,,---,0.01,VWS V14.00,2013-01-12 20:13:00,
2013-01-12 15:18:00,71.2,59.7,30.10,West,263,11.0,11.0,67,0.00,,---,0.01,VWS V14.00,2013-01-12 20:18:00,
2013-01-12 15:23:00,70.9,59.4,30.10,WSW,250,3.0,7.0,67,0.00,,---,0.01,VWS V14.00,2013-01-12 20:23:00,
2013-01-12 15:28:00,70.7,59.6,30.10,WSW,248,3.0,7.0,68,0.00,,---,0.01,VWS V14.00,2013-01-12 20:28:00,
2013-01-12 15:33:00,70.6,60.0,30.10,WSW,244,4.0,7.0,69,0.00,,---,0.01,VWS V14.00,2013-01-12 20:33:00,
2013-01-12 15:38:00,70.6,60.8,30.10,SSW,205,6.0,7.0,71,0.00,,---,0.01,VWS V14.00,2013-01-12 20:38:00,
2013-01-12 15:43:00,70.5,61.0,30.10,SW,222,7.0,7.0,72,0.00,,---,0.01,VWS V14.00,2013-01-12 20:43:00,
2013-01-12 15:48:00,70.4,60.6,30.10,SW,236,0.0,10.0,71,0.00,,---,0.01,VWS V14.00,2013-01-12 20:48:00,
2013-01-12 15:53:00,70.2,60.8,30.10,SSW,209,0.0,3.0,72,0.00,,---,0.01,VWS V14.00,2013-01-12 20:53:00,
2013-01-12 15:58:00,70.0,60.6,30.10,WSW,242,10.0,10.0,72,0.00,,---,0.01,VWS V14.00,2013-01-12 20:58:00,
2013-01-12 16:03:00,69.9,60.5,30.10,WSW,254,7.0,8.0,72,0.00,,---,0.01,VWS V14.00,2013-01-12 21:03:00,
2013-01-12 16:08:00,69.8,60.8,30.10,SW,223,1.0,4.0,73,0.00,,---,0.01,VWS V14.00,2013-01-12 21:08:00,
2013-01-12 16:13:00,69.7,60.7,30.10,SW,227,4.0,5.0,73,0.00,,---,0.01,VWS V14.00,2013-01-12 21:13:00,
2013-01-12 16:18:00,69.7,60.7,30.10,WSW,245,0.0,2.0,73,0.00,,---,0.01,VWS V14.00,2013-01-12 21:18:00,
2013-01-12 16:23:00,69.6,61.0,30.10,SSW,206,0.0,4.0,74,0.00,,---,0.01,VWS V14.00,2013-01-12 21:23:00,
2013-01-12 16:28:00,69.5,60.9,30.10,WSW,244,3.0,7.0,74,0.00,,---,0.01,VWS V14.00,2013-01-12 21:28:00,
2013-01-12 16:33:00,69.4,60.8,30.10,SSW,205,7.0,7.0,74,0.00,,---,0.01,VWS V14.00,2013-01-12 21:33:00,
2013-01-12 16:38:00,69.4,60.8,30.11,SW,234,6.0,6.0,74,0.00,,---,0.01,VWS V14.00,2013-01-12 21:38:00,
2013-01-12 16:43:00,69.3,60.7,30.10,SW,234,0.0,0.0,74,0.00,,---,0.01,VWS V14.00,2013-01-12 21:43:00,
2013-01-12 16:48:00,69.3,61.0,30.10,WSW,243,3.0,5.0,75,0.00,,---,0.01,VWS V14.00,2013-01-12 21:48:00,
2013-01-12 16:53:00,69.3,61.0,30.10,SSW,199,2.0,9.0,75,0.00,,---,0.01,VWS V14.00,2013-01-12 21:53:00,
2013-01-12 16:58:00,69.2,61.0,30.10,SW,234,1.0,4.0,75,0.00,,---,0.01,VWS V14.00,2013-01-12 21:58:00,
2013-01-12 17:03:00,69.1,61.2,30.10,SSW,207,1.0,2.0,76,0.00,,---,0.01,VWS V14.00,2013-01-12 22:03:00,
2013-01-12 17:08:00,69.0,61.1,30.10,SSW,207,1.0,2.0,76,0.00,,---,0.01,VWS V14.00,2013-01-12 22:08:00,
2013-01-12 17:13:00,68.9,61.0,30.10,SW,220,6.0,6.0,76,0.00,,---,0.01,VWS V14.00,2013-01-12 22:13:00,
2013-01-12 17:18:00,68.8,60.9,30.10,SSW,205,3.0,5.0,76,0.00,,---,0.01,VWS V14.00,2013-01-12 22:18:00,
2013-01-12 17:23:00,68.6,61.1,30.10,SSW,212,3.0,3.0,77,0.00,,---,0.01,VWS V14.00,2013-01-12 22:23:00,
2013-01-12 17:28:00,68.5,61.0,30.10,SSW,212,0.0,1.0,77,0.00,,---,0.01,VWS V14.00,2013-01-12 22:28:00,
2013-01-12 17:33:00,68.4,61.3,30.10,SSW,212,0.0,2.0,78,0.00,,---,0.01,VWS V14.00,2013-01-12 22:33:00,
2013-01-12 17:38:00,68.2,61.1,30.10,SSW,212,0.0,0.0,78,0.00,,---,0.01,VWS V14.00,2013-01-12 22:38:00,
2013-01-12 17:43:00,68.0,61.2,30.10,SSW,212,0.0,1.0,79,0.00,,---,0.01,VWS V14.00,2013-01-12 22:43:00,
2013-01-12 17:48:00,67.8,61.1,30.09,SSW,212,0.0,0.0,79,0.00,,---,0.01,VWS V14.00,2013-01-12 22:48:00,
2013-01-12 17:53:00,67.6,61.2,30.10,SSW,212,0.0,0.0,80,0.00,,---,0.01,VWS V14.00,2013-01-12 22:53:00,
2013-01-12 17:58:00,67.4,61.0,30.10,SSW,212,0.0,0.0,80,0.00,,---,0.01,VWS V14.00,2013-01-12 22:58:00,
2013-01-12 18:03:00,67.1,61.1,30.10,SSW,212,0.0,0.0,81,0.00,,---,0.01,VWS V14.00,2013-01-12 23:03:00,
2013-01-12 18:08:00,66.9,60.9,30.10,SSW,212,0.0,0.0,81,0.00,,---,0.01,VWS V14.00,2013-01-12 23:08:00,
2013-01-12 18:13:00,66.6,60.9,30.10,SSW,212,0.0,0.0,82,0.00,,---,0.01,VWS V14.00,2013-01-12 23:13:00,
2013-01-12 18:18:00,66.3,61.0,30.10,SSW,212,0.0,0.0,83,0.00,,---,0.01,VWS V14.00,2013-01-12 23:18:00,
2013-01-12 18:23:00,66.0,60.7,30.10,SSW,212,0.0,0.0,83,0.00,,---,0.01,VWS V14.00,2013-01-12 23:23:00,
2013-01-12 18:28:00,65.8,60.5,30.10,SSW,212,0.0,0.0,83,0.00,,---,0.01,VWS V14.00,2013-01-12 23:28:00,
2013-01-12 18:33:00,65.5,60.5,30.10,SSW,212,0.0,0.0,84,0.00,,---,0.01,VWS V14.00,2013-01-12 23:33:00,
2013-01-12 18:38:00,65.2,60.2,30.10,SSW,212,0.0,0.0,84,0.00,,---,0.01,VWS V14.00,2013-01-12 23:38:00,
2013-01-12 18:43:00,64.9,60.3,30.09,SSW,212,0.0,0.0,85,0.00,,---,0.01,VWS V14.00,2013-01-12 23:43:00,
2013-01-12 18:48:00,64.5,60.2,30.10,SSW,212,0.0,0.0,86,0.00,,---,0.01,VWS V14.00,2013-01-12 23:48:00,
2013-01-12 18:53:00,64.1,59.8,30.10,SSW,212,0.0,0.0,86,0.00,,---,0.01,VWS V14.00,2013-01-12 23:53:00,
2013-01-12 18:58:00,63.8,59.9,30.10,SSW,212,0.0,0.0,87,0.00,,---,0.01,VWS V14.00,2013-01-12 23:58:00,
2013-01-12 19:03:00,63.4,59.5,30.10,SSW,212,0.0,0.0,87,0.00,,---,0.01,VWS V14.00,2013-01-13 00:03:00,
2013-01-12 19:08:00,63.1,59.5,30.10,SSW,212,0.0,0.0,88,0.00,,---,0.01,VWS V14.00,2013-01-13 00:08:00,
2013-01-12 19:13:00,62.8,59.2,30.10,SSW,212,0.0,0.0,88,0.00,,---,0.01,VWS V14.00,2013-01-13 00:13:00,
2013-01-12 19:18:00,62.5,59.2,30.10,SSW,212,0.0,0.0,89,0.00,,---,0.01,VWS V14.00,2013-01-13 00:18:00,
2013-01-12 19:23:00,62.3,59.3,30.09,SSW,212,0.0,0.0,90,0.00,,---,0.01,VWS V14.00,2013-01-13 00:23:00,
2013-01-12 19:28:00,62.0,59.0,30.10,SSW,212,0.0,0.0,90,0.00,,---,0.01,VWS V14.00,2013-01-13 00:28:00,
2013-01-12 19:33:00,61.9,59.2,30.10,SSW,212,0.0,0.0,91,0.00,,---,0.01,VWS V14.00,2013-01-13 00:33:00,
2013-01-12 19:38:00,61.8,59.5,30.10,SSW,212,0.0,0.0,92,0.00,,---,0.01,VWS V14.00,2013-01-13 00:38:00,
2013-01-12 19:43:00,61.8,59.5,30.09,SSW,212,0.0,0.0,92,0.00,,---,0.01,VWS V14.00,2013-01-13 00:43:00,
2013-01-12 19:48:00,61.8,59.8,30.09,SSW,212,0.0,0.0,93,0.00,,---,0.01,VWS V14.00,2013-01-13 00:48:00,
2013-01-12 19:53:00,61.8,59.8,30.09,SSW,212,0.0,0.0,93,0.00,,---,0.01,VWS V14.00,2013-01-13 00:53:00,
2013-01-12 19:58:00,61.9,59.9,30.09,SSW,212,0.0,0.0,93,0.00,,---,0.01,VWS V14.00,2013-01-13 00:58:00,
2013-01-12 20:03:00,61.9,59.9,30.09,SSW,212,0.0,0.0,93,0.00,,---,0.01,VWS V14.00,2013-01-13 01:03:00,
2013-01-12 20:08:00,61.9,59.9,30.09,SSW,212,0.0,0.0,93,0.00,,---,0.01,VWS V14.00,2013-01-13 01:08:00,
2013-01-12 20:13:00,61.8,60.1,30.09,SSW,212,0.0,0.0,94,0.00,,---,0.01,VWS V14.00,2013-01-13 01:13:00,
2013-01-12 20:18:00,61.9,60.2,30.09,SSW,212,0.0,0.0,94,0.00,,---,0.01,VWS V14.00,2013-01-13 01:18:00,
2013-01-12 20:23:00,61.9,60.2,30.09,SSW,212,0.0,0.0,94,0.00,,---,0.01,VWS V14.00,2013-01-13 01:23:00,
2013-01-12 20:28:00,61.9,60.2,30.09,SSW,212,0.0,0.0,94,0.00,,---,0.01,VWS V14.00,2013-01-13 01:28:00,
2013-01-12 20:33:00,61.8,59.8,30.09,SSW,212,0.0,0.0,93,0.00,,---,0.01,VWS V14.00,2013-01-13 01:33:00,
2013-01-12 20:38:00,61.7,59.7,30.09,SSW,212,0.0,0.0,93,0.00,,---,0.01,VWS V14.00,2013-01-13 01:38:00,
2013-01-12 20:43:00,61.6,59.9,30.09,SSW,212,0.0,0.0,94,0.00,,---,0.01,VWS V14.00,2013-01-13 01:43:00,
2013-01-12 20:48:00,61.6,59.9,30.09,SSW,212,0.0,0.0,94,0.00,,---,0.01,VWS V14.00,2013-01-13 01:48:00,
2013-01-12 20:53:00,61.5,59.8,30.09,SSW,212,0.0,0.0,94,0.00,,---,0.01,VWS V14.00,2013-01-13 01:53:00,
2013-01-12 20:58:00,61.4,59.7,30.09,SSW,212,0.0,0.0,94,0.00,,---,0.01,VWS V14.00,2013-01-13 01:58:00,
2013-01-12 21:03:00,61.4,59.7,30.09,SSW,212,0.0,0.0,94,0.00,,---,0.01,VWS V14.00,2013-01-13 02:03:00,
2013-01-12 21:08:00,61.3,59.6,30.09,SSW,212,0.0,0.0,94,0.00,,---,0.01,VWS V14.00,2013-01-13 02:08:00,
2013-01-12 21:13:00,61.2,59.5,30.09,SSW,212,0.0,0.0,94,0.00,,---,0.01,VWS V14.00,2013-01-13 02:13:00,
2013-01-12 21:18:00,61.1,59.4,30.09,SSW,212,0.0,0.0,94,0.00,,---,0.01,VWS V14.00,2013-01-13 02:18:00,
2013-01-12 21:23:00,60.9,59.2,30.09,SSW,212,0.0,0.0,94,0.00,,---,0.01,VWS V14.00,2013-01-13 02:23:00,
2013-01-12 21:28:00,60.8,59.1,30.09,SSW,212,0.0,0.0,94,0.00,,---,0.01,VWS V14.00,2013-01-13 02:28:00,
2013-01-12 21:33:00,60.6,58.9,30.08,SSW,212,0.0,0.0,94,0.00,,---,0.01,VWS V14.00,2013-01-13 02:33:00,
2013-01-12 21:38:00,60.4,58.7,30.08,SSW,212,0.0,0.0,94,0.00,,---,0.01,VWS V14.00,2013-01-13 02:38:00,
2013-01-12 21:43:00,60.3,58.6,30.09,SSW,212,0.0,0.0,94,0.00,,---,0.01,VWS V14.00,2013-01-13 02:43:00,
2013-01-12 21:48:00,60.0,58.3,30.09,SSW,212,0.0,0.0,94,0.00,,---,0.01,VWS V14.00,2013-01-13 02:48:00,
2013-01-12 21:53:00,59.8,58.1,30.08,SSW,212,0.0,0.0,94,0.00,,---,0.01,VWS V14.00,2013-01-13 02:53:00,
2013-01-12 21:58:00,59.6,57.9,30.09,SSW,212,0.0,0.0,94,0.00,,---,0.01,VWS V14.00,2013-01-13 02:58:00,
2013-01-12 22:03:00,59.5,58.1,30.09,SSW,212,0.0,0.0,95,0.00,,---,0.01,VWS V14.00,2013-01-13 03:03:00,
2013-01-12 22:08:00,59.4,58.0,30.08,SSW,212,0.0,0.0,95,0.00,,---,0.01,VWS V14.00,2013-01-13 03:08:00,
2013-01-12 22:13:00,59.3,57.9,30.08,SSW,212,0.0,0.0,95,0.00,,---,0.01,VWS V14.00,2013-01-13 03:13:00,
2013-01-12 22:18:00,59.1,57.7,30.08,SSW,212,0.0,0.0,95,0.00,,---,0.01,VWS V14.00,2013-01-13 03:18:00,
2013-01-12 22:23:00,59.0,57.6,30.08,SSW,212,0.0,0.0,95,0.00,,---,0.01,VWS V14.00,2013-01-13 03:23:00,
2013-01-12 22:28:00,58.9,57.8,30.08,SSW,212,0.0,0.0,96,0.00,,---,0.01,VWS V14.00,2013-01-13 03:28:00,
2013-01-12 22:33:00,58.9,57.8,30.08,SSW,212,0.0,0.0,96,0.00,,---,0.01,VWS V14.00,2013-01-13 03:33:00,
2013-01-12 22:38:00,58.8,57.7,30.08,SSW,212,0.0,0.0,96,0.00,,---,0.01,VWS V14.00,2013-01-13 03:38:00,
2013-01-12 22:43:00,58.8,57.7,30.08,SSW,212,0.0,0.0,96,0.00,,---,0.01,VWS V14.00,2013-01-13 03:43:00,
2013-01-12 22:48:00,58.9,58.0,30.08,SSW,212,0.0,0.0,97,0.00,,---,0.01,VWS V14.00,2013-01-13 03:48:00,
2013-01-12 22:53:00,58.9,58.0,30.08,SSW,212,0.0,0.0,97,0.00,,---,0.01,VWS V14.00,2013-01-13 03:53:00,
2013-01-12 22:58:00,58.9,57.8,30.08,SSW,212,0.0,0.0,96,0.00,,---,0.01,VWS V14.00,2013-01-13 03:58:00,
2013-01-12 23:03:00,58.8,57.7,30.08,SSW,212,0.0,0.0,96,0.00,,---,0.01,VWS V14.00,2013-01-13 04:03:00,
2013-01-12 23:08:00,58.7,57.6,30.08,SSW,212,0.0,0.0,96,0.00,,---,0.01,VWS V14.00,2013-01-13 04:08:00,
2013-01-12 23:13:00,58.8,58.0,30.08,SSW,212,0.0,0.0,97,0.00,,---,0.01,VWS V14.00,2013-01-13 04:13:00,
2013-01-12 23:18:00,58.9,58.0,30.08,SSW,212,0.0,0.0,97,0.00,,---,0.01,VWS V14.00,2013-01-13 04:18:00,
2013-01-12 23:23:00,59.0,58.2,30.08,SSW,212,0.0,0.0,97,0.00,,---,0.01,VWS V14.00,2013-01-13 04:23:00,
2013-01-12 23:28:00,59.1,58.2,30.08,SSW,212,0.0,0.0,97,0.00,,---,0.01,VWS V14.00,2013-01-13 04:28:00,
2013-01-12 23:33:00,59.2,58.3,30.08,SSW,212,0.0,0.0,97,0.00,,---,0.01,VWS V14.00,2013-01-13 04:33:00,
2013-01-12 23:38:00,59.4,58.5,30.08,SSW,212,0.0,0.0,97,0.00,,---,0.01,VWS V14.00,2013-01-13 04:38:00,
2013-01-12 23:43:00,59.6,59.0,30.08,SSW,212,0.0,0.0,98,0.00,,---,0.01,VWS V14.00,2013-01-13 04:43:00,
2013-01-12 23:49:00,59.7,59.1,30.08,SSW,212,0.0,0.0,98,0.00,,---,0.01,VWS V14.00,2013-01-13 04:49:00,
2013-01-12 23:54:00,59.7,58.8,30.07,SSW,212,0.0,0.0,97,0.00,,---,0.01,VWS V14.00,2013-01-13 04:54:00,
2013-01-12 23:59:00,59.8,59.0,30.08,SSW,212,0.0,0.0,97,0.00,,---,0.00,VWS V14.00,2013-01-13 04:59:00,